createdAt,value
2018-12-20T00:00:59.462Z,19.00
2018-12-20T00:03:28.324Z,20.97
2018-12-20T00:05:57.016Z,20.50
2018-12-20T00:08:25.706Z,21.23
2018-12-20T00:10:54.509Z,20.80
2018-12-20T00:13:23.376Z,20.87
2018-12-20T00:15:52.237Z,19.87
2018-12-20T00:18:20.959Z,20.17
2018-12-20T00:20:49.849Z,19.60
2018-12-20T00:23:18.539Z,19.20
2018-12-20T00:25:47.251Z,19.90
2018-12-20T00:28:15.951Z,22.10
2018-12-20T00:30:44.590Z,21.20
2018-12-20T00:33:13.403Z,20.20
2018-12-20T00:35:42.183Z,21.57
2018-12-20T00:38:10.883Z,20.67
2018-12-20T00:40:39.579Z,21.10
2018-12-20T00:43:08.286Z,20.13
2018-12-20T00:45:36.994Z,19.47
2018-12-20T00:48:05.860Z,20.87
2018-12-20T00:50:34.751Z,19.10
2018-12-20T00:53:03.468Z,20.60
2018-12-20T00:55:32.197Z,19.40
2018-12-20T00:58:01.119Z,19.50
2018-12-20T01:00:29.956Z,19.87
2018-12-20T01:02:58.795Z,20.60
2018-12-20T01:05:27.984Z,20.73
2018-12-20T01:07:56.966Z,22.03
2018-12-20T01:10:25.800Z,21.67
2018-12-20T01:12:54.552Z,21.17
2018-12-20T01:15:23.331Z,20.53
2018-12-20T01:17:52.316Z,21.43
2018-12-20T01:20:21.123Z,20.20
2018-12-20T01:22:50.101Z,22.50
2018-12-20T01:25:18.923Z,20.37
2018-12-20T01:27:47.610Z,21.07
2018-12-20T01:30:16.406Z,21.13
2018-12-20T01:32:45.237Z,21.67
2018-12-20T01:35:14.112Z,21.83
2018-12-20T01:37:42.842Z,22.37
2018-12-20T01:40:11.832Z,22.57
2018-12-20T01:42:40.730Z,20.97
2018-12-20T01:45:09.538Z,23.07
2018-12-20T01:47:38.143Z,20.67
2018-12-20T01:50:07.645Z,22.23
2018-12-20T01:52:36.278Z,22.63
2018-12-20T01:55:05.381Z,21.60
2018-12-20T01:57:34.150Z,22.27
2018-12-20T02:00:02.918Z,22.80
2018-12-20T02:02:31.672Z,22.80
2018-12-20T02:05:00.423Z,23.47
2018-12-20T02:07:29.496Z,23.00
2018-12-20T02:09:58.342Z,23.10
2018-12-20T02:12:27.169Z,24.20
2018-12-20T02:15:01.548Z,23.03
2018-12-20T02:17:26.595Z,22.17
2018-12-20T02:19:55.425Z,24.23
2018-12-20T02:22:24.231Z,22.03
2018-12-20T02:24:53.069Z,23.30
2018-12-20T02:27:21.783Z,22.97
2018-12-20T02:29:50.722Z,21.83
2018-12-20T02:32:19.738Z,25.17
2018-12-20T02:34:48.627Z,24.53
2018-12-20T02:37:17.344Z,22.83
2018-12-20T02:39:46.026Z,22.33
2018-12-20T02:42:14.750Z,22.57
2018-12-20T02:44:43.659Z,23.17
2018-12-20T02:47:12.433Z,24.23
2018-12-20T02:49:41.121Z,23.70
2018-12-20T02:52:09.911Z,22.03
2018-12-20T02:54:38.942Z,23.57
2018-12-20T02:57:07.743Z,22.00
2018-12-20T02:59:36.555Z,23.37
2018-12-20T03:02:05.457Z,21.60
2018-12-20T03:04:34.161Z,23.63
2018-12-20T03:07:02.902Z,24.83
2018-12-20T03:09:31.728Z,24.37
2018-12-20T03:12:00.492Z,24.00
2018-12-20T03:14:29.365Z,24.67
2018-12-20T03:16:58.124Z,23.73
2018-12-20T03:19:26.865Z,23.60
2018-12-20T03:21:55.865Z,23.80
2018-12-20T03:24:24.662Z,23.60
2018-12-20T03:26:53.464Z,24.33
2018-12-20T03:29:22.232Z,25.30
2018-12-20T03:31:51.089Z,24.20
2018-12-20T03:34:19.907Z,23.93
2018-12-20T03:36:48.789Z,23.50
2018-12-20T03:39:17.713Z,25.53
2018-12-20T03:41:46.448Z,25.03
2018-12-20T03:44:15.263Z,24.57
2018-12-20T03:46:44.378Z,23.93
2018-12-20T03:49:13.243Z,24.90
2018-12-20T03:51:42.127Z,25.20
2018-12-20T03:54:10.803Z,25.83
2018-12-20T03:56:39.532Z,26.03
2018-12-20T03:59:08.424Z,23.90
2018-12-20T04:01:37.347Z,25.40
2018-12-20T04:04:06.285Z,23.70
2018-12-20T04:06:34.997Z,23.80
2018-12-20T04:09:06.236Z,25.63
2018-12-20T04:11:35.147Z,26.33
2018-12-20T04:14:04.202Z,27.30
2018-12-20T04:16:33.003Z,26.20
2018-12-20T04:19:02.073Z,26.73
2018-12-20T04:21:30.805Z,24.43
2018-12-20T04:23:59.458Z,26.00
2018-12-20T04:26:28.130Z,25.33
2018-12-20T04:28:56.837Z,25.70
2018-12-20T04:31:25.477Z,25.83
2018-12-20T04:33:54.146Z,24.90
2018-12-20T04:36:23.278Z,23.43
2018-12-20T04:38:52.441Z,26.37
2018-12-20T04:41:21.162Z,27.77
2018-12-20T04:43:49.907Z,25.17
2018-12-20T04:46:19.055Z,25.40
2018-12-20T04:48:47.926Z,25.13
2018-12-20T04:51:16.944Z,26.00
2018-12-20T04:53:45.668Z,27.83
2018-12-20T04:56:14.570Z,27.67
2018-12-20T04:58:43.210Z,23.80
2018-12-20T05:01:11.895Z,26.40
2018-12-20T05:03:41.221Z,26.50
2018-12-20T05:06:09.946Z,25.17
2018-12-20T05:08:38.800Z,24.63
2018-12-20T05:11:07.594Z,25.30
2018-12-20T05:13:36.235Z,24.20
2018-12-20T05:16:04.961Z,25.53
2018-12-20T05:18:33.851Z,24.13
2018-12-20T05:21:02.589Z,23.43
2018-12-20T05:23:31.386Z,24.60
2018-12-20T05:26:00.255Z,25.53
2018-12-20T05:28:28.926Z,26.60
2018-12-20T05:30:57.720Z,25.07
2018-12-20T05:33:26.771Z,25.10
2018-12-20T05:35:55.613Z,25.23
2018-12-20T05:38:24.540Z,23.53
2018-12-20T05:40:53.691Z,26.00
2018-12-20T05:43:22.736Z,24.30
2018-12-20T05:45:52.661Z,25.30
2018-12-20T05:48:21.859Z,24.90
2018-12-20T05:50:50.832Z,23.83
2018-12-20T05:53:19.507Z,25.03
2018-12-20T05:55:48.342Z,23.30
2018-12-20T05:58:17.195Z,23.10
2018-12-20T06:00:46.204Z,24.20
2018-12-20T06:03:14.856Z,24.70
2018-12-20T06:05:44.575Z,24.00
2018-12-20T06:08:13.305Z,25.53
2018-12-20T06:10:42.057Z,26.80
2018-12-20T06:13:10.974Z,24.70
2018-12-20T06:15:40.010Z,25.67
2018-12-20T06:18:08.930Z,26.00
2018-12-20T06:20:37.644Z,25.57
2018-12-20T06:23:06.441Z,25.10
2018-12-20T06:25:35.108Z,24.73
2018-12-20T06:28:03.803Z,24.83
2018-12-20T06:30:32.455Z,26.30
2018-12-20T06:33:01.203Z,25.83
2018-12-20T06:35:29.872Z,27.20
2018-12-20T06:37:58.533Z,25.97
2018-12-20T06:40:27.178Z,25.07
2018-12-20T06:42:55.866Z,27.07
2018-12-20T06:45:24.500Z,27.13
2018-12-20T06:47:53.206Z,27.73
2018-12-20T06:50:21.880Z,25.77
2018-12-20T06:52:50.521Z,26.83
2018-12-20T06:55:19.206Z,25.23
2018-12-20T06:57:47.907Z,27.83
2018-12-20T07:00:16.656Z,26.57
2018-12-20T07:02:45.321Z,25.67
2018-12-20T07:05:14.066Z,25.83
2018-12-20T07:07:42.717Z,27.80
2018-12-20T07:10:11.374Z,25.63
2018-12-20T07:12:40.137Z,27.67
2018-12-20T07:15:09.539Z,27.17
2018-12-20T07:17:38.249Z,27.13
2018-12-20T07:20:07.224Z,28.00
2018-12-20T07:22:35.905Z,27.10
2018-12-20T07:25:05.414Z,27.47
2018-12-20T07:27:36.199Z,27.50
2018-12-20T07:30:06.436Z,27.47
2018-12-20T07:32:35.116Z,24.67
2018-12-20T07:35:03.851Z,28.30
2018-12-20T07:37:32.558Z,27.50
2018-12-20T07:40:01.267Z,27.63
2018-12-20T07:42:29.966Z,27.60
2018-12-20T07:44:58.600Z,27.90
2018-12-20T07:47:27.346Z,26.37
2018-12-20T07:49:55.983Z,27.50
2018-12-20T07:52:24.641Z,28.27
2018-12-20T07:54:53.330Z,29.00
2018-12-20T07:57:22.014Z,26.90
2018-12-20T07:59:50.713Z,26.13
2018-12-20T08:02:19.543Z,27.00
2018-12-20T08:04:48.231Z,28.17
2018-12-20T08:07:16.961Z,26.93
2018-12-20T08:09:45.600Z,27.67
2018-12-20T08:12:14.340Z,26.87
2018-12-20T08:14:43.007Z,28.37
2018-12-20T08:17:11.724Z,27.57
2018-12-20T08:19:40.373Z,26.77
2018-12-20T08:22:09.163Z,28.60
2018-12-20T08:24:38.004Z,27.27
2018-12-20T08:27:07.563Z,25.60
2018-12-20T08:29:36.285Z,27.60
2018-12-20T08:32:04.985Z,26.90
2018-12-20T08:34:33.738Z,28.07
2018-12-20T08:37:02.393Z,25.60
2018-12-20T08:39:32.194Z,27.53
2018-12-20T08:42:01.243Z,26.17
2018-12-20T08:44:29.924Z,26.70
2018-12-20T08:46:59.322Z,25.47
2018-12-20T08:49:28.014Z,25.30
2018-12-20T08:51:56.776Z,25.67
2018-12-20T08:54:25.486Z,28.57
2018-12-20T08:56:54.173Z,25.30
2018-12-20T08:59:22.896Z,24.73
2018-12-20T09:01:51.530Z,26.30
2018-12-20T09:04:20.276Z,25.77
2018-12-20T09:06:48.921Z,24.63
2018-12-20T09:09:17.728Z,22.50
2018-12-20T09:13:29.933Z,25.07
2018-12-20T09:15:58.594Z,24.37
2018-12-20T09:18:27.333Z,24.27
2018-12-20T09:20:56.001Z,24.23
2018-12-20T09:23:24.824Z,25.00
2018-12-20T09:25:53.543Z,24.77
2018-12-20T09:28:22.223Z,24.10
2018-12-20T09:30:50.885Z,23.30
2018-12-20T09:33:19.541Z,23.77
2018-12-20T09:35:48.184Z,24.13
2018-12-20T09:38:16.942Z,23.57
2018-12-20T09:40:45.651Z,24.17
2018-12-20T09:43:14.340Z,24.10
2018-12-20T09:45:43.034Z,21.97
2018-12-20T09:48:11.741Z,22.53
2018-12-20T09:50:40.386Z,23.90
2018-12-20T09:53:09.019Z,23.13
2018-12-20T09:55:37.703Z,24.00
2018-12-20T09:58:06.431Z,22.00
2018-12-20T10:00:35.172Z,22.73
2018-12-20T10:03:03.862Z,23.17
2018-12-20T10:05:32.540Z,22.27
2018-12-20T10:08:01.239Z,22.70
2018-12-20T10:10:30.053Z,21.13
2018-12-20T10:13:00.856Z,22.60
2018-12-20T10:15:29.502Z,22.23
2018-12-20T10:17:58.177Z,22.23
2018-12-20T10:20:27.208Z,23.37
2018-12-20T10:22:57.516Z,21.73
2018-12-20T10:25:26.456Z,22.50
2018-12-20T10:27:55.263Z,22.37
2018-12-20T10:30:24.312Z,21.03
2018-12-20T10:32:54.394Z,21.07
2018-12-20T10:35:24.435Z,20.70
2018-12-20T10:37:53.238Z,20.67
2018-12-20T10:40:22.266Z,21.73
2018-12-20T10:42:52.349Z,21.13
2018-12-20T10:45:21.209Z,20.73
2018-12-20T10:47:50.085Z,19.97
2018-12-20T10:50:18.868Z,20.97
2018-12-20T10:52:47.940Z,22.13
2018-12-20T10:55:16.973Z,21.37
2018-12-20T10:57:45.933Z,20.37
2018-12-20T11:00:14.638Z,22.47
2018-12-20T11:02:48.914Z,20.57
2018-12-20T11:05:27.935Z,20.23
2018-12-20T11:08:00.618Z,19.40
2018-12-20T11:10:32.013Z,21.40
2018-12-20T11:13:05.462Z,18.80
2018-12-20T11:15:37.381Z,19.97
2018-12-20T11:18:07.323Z,20.77
2018-12-20T11:20:36.181Z,20.23
2018-12-20T11:23:05.067Z,19.43
2018-12-20T11:25:34.267Z,20.20
2018-12-20T11:28:03.340Z,20.33
2018-12-20T11:30:32.039Z,19.13
2018-12-20T11:33:00.840Z,19.07
2018-12-20T11:35:29.760Z,19.87
2018-12-20T11:37:59.715Z,18.90
2018-12-20T11:40:35.859Z,19.23
2018-12-20T11:43:09.873Z,20.53
2018-12-20T11:45:53.139Z,20.27
2018-12-20T11:48:21.935Z,20.07
2018-12-20T11:50:50.856Z,18.67
2018-12-20T11:53:19.664Z,20.90
2018-12-20T11:55:48.746Z,19.70
2018-12-20T11:58:17.423Z,17.80
2018-12-20T12:00:46.146Z,18.83
2018-12-20T12:03:14.855Z,17.87
2018-12-20T12:05:43.690Z,19.27
2018-12-20T12:08:12.361Z,19.90
2018-12-20T12:10:41.065Z,19.47
2018-12-20T12:13:09.712Z,19.00
2018-12-20T12:15:38.425Z,19.87
2018-12-20T12:18:07.229Z,18.63
2018-12-20T12:20:36.015Z,18.57
2018-12-20T12:23:04.692Z,17.47
2018-12-20T12:25:33.398Z,19.07
2018-12-20T12:28:02.068Z,17.07
2018-12-20T12:30:30.873Z,17.43
2018-12-20T12:32:59.543Z,18.07
2018-12-20T12:35:28.254Z,17.20
2018-12-20T12:37:57.013Z,17.23
2018-12-20T12:40:27.365Z,17.80
2018-12-20T12:42:56.165Z,17.23
2018-12-20T12:45:24.920Z,17.33
2018-12-20T12:48:03.216Z,17.03
2018-12-20T12:50:29.711Z,17.70
2018-12-20T12:52:58.348Z,17.40
2018-12-20T12:55:27.035Z,17.23
2018-12-20T12:57:55.675Z,17.47
2018-12-20T13:00:24.350Z,18.53
2018-12-20T13:02:53.078Z,17.17
2018-12-20T13:05:21.722Z,18.10
2018-12-20T13:07:50.407Z,16.67
2018-12-20T13:10:19.075Z,18.43
2018-12-20T13:12:47.728Z,16.47
2018-12-20T13:15:17.344Z,17.33
2018-12-20T13:17:46.200Z,17.10
2018-12-20T13:20:16.455Z,15.07
2018-12-20T13:22:45.260Z,16.67
2018-12-20T13:25:13.936Z,16.27
2018-12-20T13:27:42.636Z,16.83
2018-12-20T13:30:12.422Z,15.87
2018-12-20T13:32:41.165Z,16.03
2018-12-20T13:35:09.849Z,16.67
2018-12-20T13:37:38.527Z,15.33
2018-12-20T13:40:07.516Z,16.93
2018-12-20T13:42:36.218Z,15.17
2018-12-20T13:45:05.724Z,15.13
2018-12-20T13:47:34.420Z,16.10
2018-12-20T13:50:03.162Z,15.37
2018-12-20T13:52:33.270Z,15.77
2018-12-20T13:55:01.907Z,17.40
2018-12-20T13:57:30.576Z,15.73
2018-12-20T13:59:59.315Z,16.57
2018-12-20T14:02:27.952Z,15.07
2018-12-20T14:04:56.623Z,16.30
2018-12-20T14:07:25.302Z,15.30
2018-12-20T14:09:53.944Z,15.40
2018-12-20T14:12:22.645Z,15.63
2018-12-20T14:14:51.355Z,17.90
2018-12-20T14:17:20.001Z,18.37
2018-12-20T14:19:48.683Z,16.10
2018-12-20T14:22:17.402Z,15.03
2018-12-20T14:24:46.068Z,16.37
2018-12-20T14:27:14.760Z,16.07
2018-12-20T14:29:43.434Z,16.53
2018-12-20T14:32:12.182Z,16.50
2018-12-20T14:34:40.863Z,17.77
2018-12-20T14:37:09.535Z,17.53
2018-12-20T14:39:38.215Z,15.83
2018-12-20T14:42:06.958Z,18.03
2018-12-20T14:44:35.602Z,16.77
2018-12-20T14:47:04.573Z,16.90
2018-12-20T14:49:34.334Z,15.33
2018-12-20T14:52:03.062Z,16.80
2018-12-20T14:54:31.798Z,16.40
2018-12-20T14:57:00.485Z,15.53
2018-12-20T14:59:29.298Z,15.33
2018-12-20T15:01:58.060Z,14.77
2018-12-20T15:04:26.848Z,17.37
2018-12-20T15:06:55.620Z,15.93
2018-12-20T15:09:24.396Z,16.27
2018-12-20T15:11:53.116Z,16.10
2018-12-20T15:14:22.993Z,17.17
2018-12-20T15:16:51.656Z,15.43
2018-12-20T15:19:20.285Z,15.83
2018-12-20T15:21:48.976Z,15.40
2018-12-20T15:24:17.665Z,16.10
2018-12-20T15:26:46.384Z,16.50
2018-12-20T15:29:15.050Z,17.03
2018-12-20T15:31:43.777Z,15.53
2018-12-20T15:34:12.456Z,15.07
2018-12-20T15:36:42.278Z,15.40
2018-12-20T15:39:11.050Z,15.53
2018-12-20T15:41:39.829Z,15.87
2018-12-20T15:44:08.538Z,16.40
2018-12-20T15:46:37.247Z,15.97
2018-12-20T15:49:05.910Z,14.37
2018-12-20T15:51:34.986Z,16.30
2018-12-20T15:54:03.816Z,14.30
2018-12-20T15:56:32.569Z,15.63
2018-12-20T15:59:01.219Z,14.97
2018-12-20T16:01:29.922Z,15.37
2018-12-20T16:03:59.217Z,15.40
2018-12-20T16:06:27.899Z,14.53
2018-12-20T16:08:56.602Z,14.17
2018-12-20T16:11:25.260Z,13.77
2018-12-20T16:13:54.421Z,14.93
2018-12-20T16:16:23.052Z,13.00
2018-12-20T16:18:51.736Z,14.47
2018-12-20T16:21:20.454Z,13.97
2018-12-20T16:23:49.196Z,14.60
2018-12-20T16:26:17.845Z,14.00
2018-12-20T16:28:46.545Z,14.80
2018-12-20T16:31:15.273Z,14.00
2018-12-20T16:33:44.774Z,14.73
2018-12-20T16:36:13.409Z,13.97
2018-12-20T16:38:42.103Z,14.07
2018-12-20T16:41:10.952Z,13.67
2018-12-20T16:43:39.655Z,13.07
2018-12-20T16:46:08.313Z,13.13
2018-12-20T16:48:37.119Z,14.07
2018-12-20T16:51:05.801Z,13.23
2018-12-20T16:53:34.472Z,14.00
2018-12-20T16:56:03.794Z,12.63
2018-12-20T16:58:32.566Z,13.43
2018-12-20T17:01:01.347Z,13.63
2018-12-20T17:03:30.074Z,14.63
2018-12-20T17:05:58.810Z,14.67
2018-12-20T17:08:27.547Z,13.57
2018-12-20T17:10:56.310Z,13.43
2018-12-20T17:13:25.526Z,14.77
2018-12-20T17:15:54.247Z,15.27
2018-12-20T17:18:22.994Z,14.90
2018-12-20T17:20:51.655Z,14.50
2018-12-20T17:23:21.242Z,14.17
2018-12-20T17:25:50.691Z,14.70
2018-12-20T17:28:19.385Z,15.10
2018-12-20T17:30:48.076Z,16.53
2018-12-20T17:33:16.763Z,16.60
2018-12-20T17:35:45.443Z,16.33
2018-12-20T17:38:14.128Z,16.60
2018-12-20T17:40:42.993Z,15.90
2018-12-20T17:43:11.706Z,16.03
2018-12-20T17:45:40.720Z,16.23
2018-12-20T17:48:09.765Z,16.13
2018-12-20T17:50:38.510Z,16.03
2018-12-20T17:53:07.435Z,16.93
2018-12-20T17:55:44.522Z,15.07
2018-12-20T17:58:06.949Z,15.30
2018-12-20T18:00:35.739Z,15.90
2018-12-20T18:03:07.051Z,16.43
2018-12-20T18:05:38.391Z,15.50
2018-12-20T18:08:07.268Z,15.47
2018-12-20T18:10:36.014Z,15.43
2018-12-20T18:13:06.046Z,16.40
2018-12-20T18:15:34.794Z,16.33
2018-12-20T18:18:03.600Z,16.43
2018-12-20T18:20:32.326Z,17.03
2018-12-20T18:23:01.132Z,17.07
2018-12-20T18:25:29.882Z,16.33
2018-12-20T18:27:58.662Z,15.20
2018-12-20T18:30:27.426Z,17.23
2018-12-20T18:32:57.037Z,17.27
2018-12-20T18:35:25.788Z,16.83
2018-12-20T18:37:54.484Z,15.20
2018-12-20T18:40:23.286Z,17.27
2018-12-20T18:42:51.985Z,16.77
2018-12-20T18:45:20.642Z,16.20
2018-12-20T18:47:49.832Z,15.67
2018-12-20T18:50:18.644Z,17.73
2018-12-20T18:52:47.726Z,17.17
2018-12-20T18:55:16.651Z,17.67
2018-12-20T18:57:45.610Z,16.87
2018-12-20T19:00:15.472Z,18.17
2018-12-20T19:02:44.338Z,20.33
2018-12-20T19:05:13.396Z,18.80
2018-12-20T19:07:42.379Z,18.73
2018-12-20T19:10:12.208Z,17.97
2018-12-20T19:12:41.062Z,17.90
2018-12-20T19:15:10.321Z,17.67
2018-12-20T19:17:42.288Z,18.17
2018-12-20T19:20:15.938Z,17.13
2018-12-20T19:22:41.780Z,17.33
2018-12-20T19:25:10.487Z,17.47
2018-12-20T19:27:39.218Z,18.13
2018-12-20T19:30:10.559Z,16.57
2018-12-20T19:32:39.327Z,16.53
2018-12-20T19:35:08.246Z,18.27
2018-12-20T19:37:36.965Z,18.73
2018-12-20T19:40:08.694Z,17.87
2018-12-20T19:42:37.431Z,17.73
2018-12-20T19:45:06.368Z,18.70
2018-12-20T19:47:35.661Z,17.97
2018-12-20T19:50:05.425Z,19.40
2018-12-20T19:52:35.180Z,18.33
2018-12-20T19:55:04.039Z,18.37
2018-12-20T19:57:32.985Z,20.70
2018-12-20T20:00:02.747Z,19.23
2018-12-20T20:02:31.516Z,18.20
2018-12-20T20:05:03.412Z,17.53
2018-12-20T20:07:32.203Z,17.00
2018-12-20T20:10:01.326Z,17.20
2018-12-20T20:12:31.858Z,17.27
2018-12-20T20:15:01.244Z,16.60
2018-12-20T20:17:30.054Z,15.87
2018-12-20T20:19:59.847Z,16.87
2018-12-20T20:22:30.224Z,15.50
2018-12-20T20:24:59.513Z,16.67
2018-12-20T20:27:28.254Z,15.30
2018-12-20T20:29:57.705Z,16.87
2018-12-20T20:32:26.696Z,17.00
2018-12-20T20:34:55.480Z,15.93
2018-12-20T20:37:24.210Z,16.93
2018-12-20T20:39:53.897Z,15.37
2018-12-20T20:42:22.848Z,16.40
2018-12-20T20:44:51.524Z,15.80
2018-12-20T20:47:20.302Z,16.20
2018-12-20T20:49:50.074Z,16.13
2018-12-20T20:52:18.763Z,16.33
2018-12-20T20:54:47.452Z,16.13
2018-12-20T20:57:16.213Z,17.50
2018-12-20T20:59:50.890Z,19.17
2018-12-20T21:02:15.737Z,16.77
2018-12-20T21:04:44.973Z,16.20
2018-12-20T21:07:13.739Z,17.20
2018-12-20T21:09:42.458Z,16.83
2018-12-20T21:12:11.142Z,17.57
2018-12-20T21:14:39.861Z,16.73
2018-12-20T21:17:09.397Z,17.70
2018-12-20T21:19:39.339Z,18.13
2018-12-20T21:22:08.163Z,19.00
2018-12-20T21:24:37.008Z,22.67
2018-12-20T21:27:06.975Z,20.97
2018-12-20T21:29:35.749Z,21.70
2018-12-20T21:32:05.147Z,23.23
2018-12-20T21:34:33.906Z,20.03
2018-12-20T21:37:03.597Z,23.10
2018-12-20T21:39:33.371Z,23.10
2018-12-20T21:42:02.118Z,22.33
2018-12-20T21:44:30.833Z,21.63
2018-12-20T21:46:59.754Z,21.17
2018-12-20T21:49:28.444Z,20.13
2018-12-20T21:51:57.177Z,20.60
2018-12-20T21:54:25.911Z,22.17
2018-12-20T21:56:55.031Z,19.93
2018-12-20T21:59:23.794Z,18.77
2018-12-20T22:01:52.651Z,18.47
2018-12-20T22:04:21.387Z,17.17
2018-12-20T22:06:50.044Z,17.57
2018-12-20T22:09:19.763Z,17.43
2018-12-20T22:11:48.541Z,15.57
2018-12-20T22:14:17.711Z,15.83
2018-12-20T22:16:46.447Z,14.70
2018-12-20T22:19:15.154Z,15.53
2018-12-20T22:21:43.900Z,14.40
2018-12-20T22:24:12.578Z,13.90
2018-12-20T22:26:41.262Z,14.60
2018-12-20T22:29:09.974Z,14.40
2018-12-20T22:31:38.627Z,14.77
2018-12-20T22:34:07.388Z,13.77
2018-12-20T22:36:36.048Z,16.47
2018-12-20T22:39:06.546Z,16.93
2018-12-20T22:41:35.233Z,17.87
2018-12-20T22:44:03.998Z,16.23
2018-12-20T22:46:32.677Z,16.57
2018-12-20T22:49:02.290Z,16.50
2018-12-20T22:51:30.934Z,14.47
2018-12-20T22:53:59.676Z,15.77
2018-12-20T22:56:28.330Z,15.00
2018-12-20T22:58:57.047Z,16.73
2018-12-20T23:01:25.850Z,15.03
2018-12-20T23:03:54.636Z,15.43
2018-12-20T23:06:23.364Z,13.70
2018-12-20T23:08:52.189Z,14.60
2018-12-20T23:11:20.952Z,14.10
2018-12-20T23:13:49.743Z,14.40
2018-12-20T23:16:18.512Z,13.40
2018-12-20T23:18:47.190Z,12.50
2018-12-20T23:21:15.881Z,13.23
2018-12-20T23:23:44.573Z,12.17
2018-12-20T23:26:13.292Z,12.87
2018-12-20T23:28:41.969Z,12.03
2018-12-20T23:31:10.731Z,12.50
2018-12-20T23:33:39.382Z,12.40
2018-12-20T23:36:08.091Z,12.57
2018-12-20T23:38:36.765Z,11.80
2018-12-20T23:41:05.476Z,12.67
2018-12-20T23:43:34.148Z,12.47
2018-12-20T23:46:02.825Z,12.90
2018-12-20T23:48:31.527Z,11.47
2018-12-20T23:51:00.224Z,11.23
2018-12-20T23:53:28.913Z,12.30
2018-12-20T23:55:57.581Z,11.50
2018-12-20T23:58:26.220Z,12.40
